sensor_id;sensor_type;location;lat;lon;timestamp;P1;durP1;ratioP1;P2;durP2;ratioP2
18647;SDS011;9453;50.294;18.644;2023-04-03T04:01:12;6.07;;;2.40;;
18647;SDS011;9453;50.294;18.644;2023-04-03T04:03:40;5.73;;;2.40;;
18647;SDS011;9453;50.294;18.644;2023-04-03T04:06:07;6.63;;;2.00;;
18647;SDS011;9453;50.294;18.644;2023-04-03T04:08:34;8.13;;;2.47;;
18647;SDS011;9453;50.294;18.644;2023-04-03T04:11:04;6.37;;;2.60;;
18647;SDS011;9453;50.294;18.644;2023-04-03T04:13:31;12.37;;;2.30;;
18647;SDS011;9453;50.294;18.644;2023-04-03T04:15:58;6.90;;;2.40;;
18647;SDS011;9453;50.294;18.644;2023-04-03T04:18:26;9.83;;;3.00;;
18647;SDS011;9453;50.294;18.644;2023-04-03T04:20:53;10.87;;;2.50;;
18647;SDS011;9453;50.294;18.644;2023-04-03T04:23:20;12.97;;;3.03;;
18647;SDS011;9453;50.294;18.644;2023-04-03T04:25:48;10.93;;;2.67;;
18647;SDS011;9453;50.294;18.644;2023-04-03T04:28:15;6.87;;;2.60;;
18647;SDS011;9453;50.294;18.644;2023-04-03T04:30:43;13.47;;;3.10;;
18647;SDS011;9453;50.294;18.644;2023-04-03T04:33:11;8.27;;;2.90;;
18647;SDS011;9453;50.294;18.644;2023-04-03T04:35:40;11.17;;;3.27;;
18647;SDS011;9453;50.294;18.644;2023-04-03T04:38:08;10.43;;;2.47;;
18647;SDS011;9453;50.294;18.644;2023-04-03T04:40:35;8.90;;;2.40;;
18647;SDS011;9453;50.294;18.644;2023-04-03T04:43:02;7.63;;;2.73;;
18647;SDS011;9453;50.294;18.644;2023-04-03T04:45:30;6.03;;;2.50;;
18647;SDS011;9453;50.294;18.644;2023-04-03T04:47:57;8.17;;;2.63;;
18647;SDS011;9453;50.294;18.644;2023-04-03T04:50:24;4.87;;;2.00;;
18647;SDS011;9453;50.294;18.644;2023-04-03T04:52:52;7.00;;;2.77;;
18647;SDS011;9453;50.294;18.644;2023-04-03T04:55:19;4.90;;;2.70;;
18647;SDS011;9453;50.294;18.644;2023-04-03T04:57:46;8.13;;;3.10;;
18647;SDS011;9453;50.294;18.644;2023-04-03T05:00:14;7.13;;;2.93;;
18647;SDS011;9453;50.294;18.644;2023-04-03T05:02:41;8.23;;;2.67;;
18647;SDS011;9453;50.294;18.644;2023-04-03T05:05:08;6.10;;;2.80;;
18647;SDS011;9453;50.294;18.644;2023-04-03T05:07:38;8.07;;;2.70;;
18647;SDS011;9453;50.294;18.644;2023-04-03T05:10:08;7.43;;;2.70;;
18647;SDS011;9453;50.294;18.644;2023-04-03T05:15:16;13.33;;;4.00;;
18647;SDS011;9453;50.294;18.644;2023-04-03T05:17:43;9.90;;;3.40;;
18647;SDS011;9453;50.294;18.644;2023-04-03T05:20:10;6.40;;;2.50;;
18647;SDS011;9453;50.294;18.644;2023-04-03T05:22:37;5.50;;;2.60;;
18647;SDS011;9453;50.294;18.644;2023-04-03T05:25:07;9.73;;;2.73;;
18647;SDS011;9453;50.294;18.644;2023-04-03T05:27:34;7.57;;;2.87;;
18647;SDS011;9453;50.294;18.644;2023-04-03T05:30:01;6.30;;;2.57;;
18647;SDS011;9453;50.294;18.644;2023-04-03T05:32:29;7.10;;;2.73;;
18647;SDS011;9453;50.294;18.644;2023-04-03T05:34:56;7.73;;;2.47;;
18647;SDS011;9453;50.294;18.644;2023-04-03T05:37:23;10.90;;;2.60;;
18647;SDS011;9453;50.294;18.644;2023-04-03T05:39:50;8.63;;;2.50;;
18647;SDS011;9453;50.294;18.644;2023-04-03T05:42:19;8.93;;;2.97;;
18647;SDS011;9453;50.294;18.644;2023-04-03T05:44:46;11.83;;;2.57;;
18647;SDS011;9453;50.294;18.644;2023-04-03T05:47:15;11.57;;;3.20;;
18647;SDS011;9453;50.294;18.644;2023-04-03T05:49:42;6.40;;;2.30;;
18647;SDS011;9453;50.294;18.644;2023-04-03T05:52:11;5.80;;;2.33;;
18647;SDS011;9453;50.294;18.644;2023-04-03T05:54:46;12.93;;;3.00;;
18647;SDS011;9453;50.294;18.644;2023-04-03T05:57:13;8.93;;;2.93;;
18647;SDS011;9453;50.294;18.644;2023-04-03T05:59:42;7.33;;;2.67;;
18647;SDS011;9453;50.294;18.644;2023-04-03T06:02:10;8.83;;;2.60;;
18647;SDS011;9453;50.294;18.644;2023-04-03T06:04:38;8.97;;;2.80;;
18647;SDS011;9453;50.294;18.644;2023-04-03T06:07:05;5.57;;;2.57;;
18647;SDS011;9453;50.294;18.644;2023-04-03T06:09:33;7.10;;;2.60;;
18647;SDS011;9453;50.294;18.644;2023-04-03T06:12:00;9.20;;;2.77;;
18647;SDS011;9453;50.294;18.644;2023-04-03T06:14:27;6.57;;;2.47;;
18647;SDS011;9453;50.294;18.644;2023-04-03T06:16:56;9.50;;;2.90;;
18647;SDS011;9453;50.294;18.644;2023-04-03T06:19:24;4.50;;;2.37;;
18647;SDS011;9453;50.294;18.644;2023-04-03T06:21:51;9.13;;;3.40;;
18647;SDS011;9453;50.294;18.644;2023-04-03T06:24:21;9.13;;;3.23;;
18647;SDS011;9453;50.294;18.644;2023-04-03T06:30:06;8.23;;;2.57;;
18647;SDS011;9453;50.294;18.644;2023-04-03T06:35:26;9.00;;;2.73;;
18647;SDS011;9453;50.294;18.644;2023-04-03T06:38:08;7.00;;;2.63;;
18647;SDS011;9453;50.294;18.644;2023-04-03T06:40:56;11.93;;;3.10;;
18647;SDS011;9453;50.294;18.644;2023-04-03T06:43:38;9.73;;;3.27;;
18647;SDS011;9453;50.294;18.644;2023-04-03T06:46:15;9.30;;;2.77;;
18647;SDS011;9453;50.294;18.644;2023-04-03T06:51:42;9.73;;;2.63;;
18647;SDS011;9453;50.294;18.644;2023-04-03T06:54:30;7.90;;;2.67;;
18647;SDS011;9453;50.294;18.644;2023-04-03T06:57:02;8.63;;;3.37;;
18647;SDS011;9453;50.294;18.644;2023-04-03T06:59:49;9.43;;;2.90;;
18647;SDS011;9453;50.294;18.644;2023-04-03T07:02:22;8.77;;;2.73;;
18647;SDS011;9453;50.294;18.644;2023-04-03T07:05:01;5.37;;;2.20;;
18647;SDS011;9453;50.294;18.644;2023-04-03T07:07:28;7.90;;;2.37;;
18647;SDS011;9453;50.294;18.644;2023-04-03T07:10:04;6.53;;;2.30;;
18647;SDS011;9453;50.294;18.644;2023-04-03T07:12:42;7.73;;;2.30;;
18647;SDS011;9453;50.294;18.644;2023-04-03T07:15:26;3.67;;;1.83;;
18647;SDS011;9453;50.294;18.644;2023-04-03T07:18:01;7.90;;;2.33;;
18647;SDS011;9453;50.294;18.644;2023-04-03T07:23:35;7.77;;;2.17;;
18647;SDS011;9453;50.294;18.644;2023-04-03T07:26:27;10.03;;;2.33;;
18647;SDS011;9453;50.294;18.644;2023-04-03T07:28:56;7.60;;;2.30;;
18647;SDS011;9453;50.294;18.644;2023-04-03T07:31:42;6.97;;;2.00;;
18647;SDS011;9453;50.294;18.644;2023-04-03T07:34:45;2.80;;;1.60;;
18647;SDS011;9453;50.294;18.644;2023-04-03T07:37:47;4.17;;;2.00;;
18647;SDS011;9453;50.294;18.644;2023-04-03T07:40:26;6.83;;;2.30;;
18647;SDS011;9453;50.294;18.644;2023-04-03T07:43:07;5.63;;;2.27;;
18647;SDS011;9453;50.294;18.644;2023-04-03T07:46:10;17.70;;;2.40;;
18647;SDS011;9453;50.294;18.644;2023-04-03T07:48:48;6.90;;;2.30;;
18647;SDS011;9453;50.294;18.644;2023-04-03T07:51:34;5.73;;;1.90;;
18647;SDS011;9453;50.294;18.644;2023-04-03T07:57:00;8.60;;;2.53;;
18647;SDS011;9453;50.294;18.644;2023-04-03T07:59:29;5.60;;;2.63;;
18647;SDS011;9453;50.294;18.644;2023-04-03T08:02:07;6.73;;;2.40;;
18647;SDS011;9453;50.294;18.644;2023-04-03T08:07:29;4.93;;;1.80;;
18647;SDS011;9453;50.294;18.644;2023-04-03T08:10:10;5.17;;;2.30;;
18647;SDS011;9453;50.294;18.644;2023-04-03T08:12:39;7.83;;;1.87;;
18647;SDS011;9453;50.294;18.644;2023-04-03T08:15:26;7.17;;;2.17;;
18647;SDS011;9453;50.294;18.644;2023-04-03T08:17:56;4.70;;;2.27;;
18647;SDS011;9453;50.294;18.644;2023-04-03T08:20:27;3.43;;;1.63;;
18647;SDS011;9453;50.294;18.644;2023-04-03T08:23:18;6.27;;;1.63;;
18647;SDS011;9453;50.294;18.644;2023-04-03T08:25:47;4.70;;;1.47;;
18647;SDS011;9453;50.294;18.644;2023-04-03T08:28:32;6.70;;;1.70;;
18647;SDS011;9453;50.294;18.644;2023-04-03T08:31:06;3.10;;;1.13;;
18647;SDS011;9453;50.294;18.644;2023-04-03T08:33:58;3.70;;;1.10;;
18647;SDS011;9453;50.294;18.644;2023-04-03T08:36:36;1.50;;;0.63;;
18647;SDS011;9453;50.294;18.644;2023-04-03T08:39:04;3.90;;;1.97;;
18647;SDS011;9453;50.294;18.644;2023-04-03T08:42:10;3.70;;;1.10;;
18647;SDS011;9453;50.294;18.644;2023-04-03T08:45:12;2.47;;;1.20;;
18647;SDS011;9453;50.294;18.644;2023-04-03T08:47:47;3.43;;;1.23;;
18647;SDS011;9453;50.294;18.644;2023-04-03T08:50:38;7.07;;;1.37;;
18647;SDS011;9453;50.294;18.644;2023-04-03T08:53:12;3.93;;;1.00;;
18647;SDS011;9453;50.294;18.644;2023-04-03T08:55:45;2.47;;;1.03;;
18647;SDS011;9453;50.294;18.644;2023-04-03T08:58:16;1.93;;;1.10;;
18647;SDS011;9453;50.294;18.644;2023-04-03T09:00:46;3.33;;;1.00;;
18647;SDS011;9453;50.294;18.644;2023-04-03T09:03:16;2.07;;;0.87;;
18647;SDS011;9453;50.294;18.644;2023-04-03T09:05:49;4.23;;;1.00;;
18647;SDS011;9453;50.294;18.644;2023-04-03T09:08:23;1.37;;;0.80;;
18647;SDS011;9453;50.294;18.644;2023-04-03T09:10:57;1.97;;;0.90;;
18647;SDS011;9453;50.294;18.644;2023-04-03T09:13:41;3.97;;;1.07;;
18647;SDS011;9453;50.294;18.644;2023-04-03T09:16:21;5.23;;;1.10;;
18647;SDS011;9453;50.294;18.644;2023-04-03T09:19:05;1.30;;;0.90;;
18647;SDS011;9453;50.294;18.644;2023-04-03T09:21:42;3.63;;;1.30;;
18647;SDS011;9453;50.294;18.644;2023-04-03T09:24:09;3.67;;;1.90;;
18647;SDS011;9453;50.294;18.644;2023-04-03T09:26:41;4.27;;;1.30;;
18647;SDS011;9453;50.294;18.644;2023-04-03T09:29:16;3.40;;;1.50;;
18647;SDS011;9453;50.294;18.644;2023-04-03T09:31:46;2.90;;;1.27;;
18647;SDS011;9453;50.294;18.644;2023-04-03T09:34:16;4.90;;;0.90;;
18647;SDS011;9453;50.294;18.644;2023-04-03T09:36:48;2.70;;;1.30;;
18647;SDS011;9453;50.294;18.644;2023-04-03T09:39:18;2.67;;;1.00;;
18647;SDS011;9453;50.294;18.644;2023-04-03T09:41:59;4.07;;;1.10;;
18647;SDS011;9453;50.294;18.644;2023-04-03T09:44:30;10.30;;;1.47;;
18647;SDS011;9453;50.294;18.644;2023-04-03T09:47:00;5.53;;;1.63;;
18647;SDS011;9453;50.294;18.644;2023-04-03T09:49:52;1.10;;;0.70;;
18647;SDS011;9453;50.294;18.644;2023-04-03T09:52:45;8.47;;;1.30;;
18647;SDS011;9453;50.294;18.644;2023-04-03T09:55:15;2.77;;;1.40;;
18647;SDS011;9453;50.294;18.644;2023-04-03T09:57:44;3.53;;;1.27;;
18647;SDS011;9453;50.294;18.644;2023-04-03T10:00:21;3.63;;;0.93;;
18647;SDS011;9453;50.294;18.644;2023-04-03T10:02:53;2.97;;;1.00;;
18647;SDS011;9453;50.294;18.644;2023-04-03T10:05:30;3.77;;;1.40;;
18647;SDS011;9453;50.294;18.644;2023-04-03T10:08:10;2.53;;;1.23;;
18647;SDS011;9453;50.294;18.644;2023-04-03T10:11:04;5.67;;;1.10;;
18647;SDS011;9453;50.294;18.644;2023-04-03T10:13:40;7.87;;;1.50;;
18647;SDS011;9453;50.294;18.644;2023-04-03T10:16:21;1.60;;;0.97;;
18647;SDS011;9453;50.294;18.644;2023-04-03T10:19:14;3.27;;;1.40;;
18647;SDS011;9453;50.294;18.644;2023-04-03T10:21:58;3.17;;;1.20;;
18647;SDS011;9453;50.294;18.644;2023-04-03T10:24:31;3.47;;;1.60;;
18647;SDS011;9453;50.294;18.644;2023-04-03T10:27:08;4.13;;;1.40;;
18647;SDS011;9453;50.294;18.644;2023-04-03T10:29:43;5.47;;;1.43;;
18647;SDS011;9453;50.294;18.644;2023-04-03T10:32:30;5.23;;;1.40;;
18647;SDS011;9453;50.294;18.644;2023-04-03T10:35:21;3.33;;;1.30;;
18647;SDS011;9453;50.294;18.644;2023-04-03T10:38:01;5.60;;;1.60;;
18647;SDS011;9453;50.294;18.644;2023-04-03T10:40:35;2.87;;;1.40;;
18647;SDS011;9453;50.294;18.644;2023-04-03T10:43:14;2.93;;;1.20;;
18647;SDS011;9453;50.294;18.644;2023-04-03T10:45:57;4.67;;;1.50;;
18647;SDS011;9453;50.294;18.644;2023-04-03T10:51:24;4.97;;;1.53;;
18647;SDS011;9453;50.294;18.644;2023-04-03T10:54:00;5.03;;;1.60;;
18647;SDS011;9453;50.294;18.644;2023-04-03T10:56:37;2.47;;;1.10;;
18647;SDS011;9453;50.294;18.644;2023-04-03T10:59:16;2.47;;;1.03;;
18647;SDS011;9453;50.294;18.644;2023-04-03T11:01:51;2.37;;;1.13;;
18647;SDS011;9453;50.294;18.644;2023-04-03T11:04:24;3.43;;;1.20;;
18647;SDS011;9453;50.294;18.644;2023-04-03T11:06:57;3.23;;;1.23;;
18647;SDS011;9453;50.294;18.644;2023-04-03T11:09:29;3.90;;;1.57;;
18647;SDS011;9453;50.294;18.644;2023-04-03T11:12:03;3.97;;;1.23;;
18647;SDS011;9453;50.294;18.644;2023-04-03T11:14:36;3.13;;;1.53;;
18647;SDS011;9453;50.294;18.644;2023-04-03T11:17:10;4.30;;;1.40;;
18647;SDS011;9453;50.294;18.644;2023-04-03T11:19:50;2.87;;;1.30;;
18647;SDS011;9453;50.294;18.644;2023-04-03T11:22:26;5.67;;;1.43;;
18647;SDS011;9453;50.294;18.644;2023-04-03T11:24:57;6.10;;;2.13;;
18647;SDS011;9453;50.294;18.644;2023-04-03T11:27:31;5.00;;;1.50;;
18647;SDS011;9453;50.294;18.644;2023-04-03T11:30:07;6.33;;;1.30;;
18647;SDS011;9453;50.294;18.644;2023-04-03T11:32:49;1.77;;;1.10;;
18647;SDS011;9453;50.294;18.644;2023-04-03T11:35:33;4.00;;;1.33;;
18647;SDS011;9453;50.294;18.644;2023-04-03T11:38:04;5.97;;;1.57;;
18647;SDS011;9453;50.294;18.644;2023-04-03T11:40:42;4.27;;;1.23;;
18647;SDS011;9453;50.294;18.644;2023-04-03T11:43:18;5.60;;;1.73;;
18647;SDS011;9453;50.294;18.644;2023-04-03T11:45:52;7.83;;;1.90;;
18647;SDS011;9453;50.294;18.644;2023-04-03T11:54:35;2.97;;;1.17;;
18647;SDS011;9453;50.294;18.644;2023-04-03T12:06:43;6.87;;;1.30;;
18647;SDS011;9453;50.294;18.644;2023-04-03T12:12:30;5.40;;;1.33;;
18647;SDS011;9453;50.294;18.644;2023-04-03T12:15:16;5.40;;;1.53;;
18647;SDS011;9453;50.294;18.644;2023-04-03T12:17:48;3.40;;;1.23;;
18647;SDS011;9453;50.294;18.644;2023-04-03T12:23:30;4.53;;;1.13;;
18647;SDS011;9453;50.294;18.644;2023-04-03T12:26:03;6.27;;;1.57;;
18647;SDS011;9453;50.294;18.644;2023-04-03T12:28:47;6.67;;;1.27;;
18647;SDS011;9453;50.294;18.644;2023-04-03T12:31:18;3.63;;;1.30;;
18647;SDS011;9453;50.294;18.644;2023-04-03T12:33:59;2.80;;;1.33;;
18647;SDS011;9453;50.294;18.644;2023-04-03T12:36:38;4.13;;;1.20;;
18647;SDS011;9453;50.294;18.644;2023-04-03T12:39:22;3.73;;;1.20;;
18647;SDS011;9453;50.294;18.644;2023-04-03T12:42:06;2.13;;;1.20;;
18647;SDS011;9453;50.294;18.644;2023-04-03T12:44:46;3.17;;;1.43;;
18647;SDS011;9453;50.294;18.644;2023-04-03T12:47:22;4.27;;;1.20;;
18647;SDS011;9453;50.294;18.644;2023-04-03T12:49:52;6.53;;;1.40;;
18647;SDS011;9453;50.294;18.644;2023-04-03T12:52:23;2.07;;;1.30;;
18647;SDS011;9453;50.294;18.644;2023-04-03T12:54:58;4.97;;;1.10;;
18647;SDS011;9453;50.294;18.644;2023-04-03T12:57:30;2.33;;;1.07;;
18647;SDS011;9453;50.294;18.644;2023-04-03T12:59:58;2.93;;;1.47;;
18647;SDS011;9453;50.294;18.644;2023-04-03T13:02:26;9.47;;;1.67;;
18647;SDS011;9453;50.294;18.644;2023-04-03T13:04:54;3.97;;;1.70;;
18647;SDS011;9453;50.294;18.644;2023-04-03T13:07:25;2.23;;;1.30;;
18647;SDS011;9453;50.294;18.644;2023-04-03T13:10:01;3.23;;;1.40;;
18647;SDS011;9453;50.294;18.644;2023-04-03T13:12:31;4.20;;;1.20;;
18647;SDS011;9453;50.294;18.644;2023-04-03T13:15:00;4.47;;;1.50;;
18647;SDS011;9453;50.294;18.644;2023-04-03T13:17:29;4.23;;;1.50;;
18647;SDS011;9453;50.294;18.644;2023-04-03T13:20:09;4.50;;;1.50;;
18647;SDS011;9453;50.294;18.644;2023-04-03T13:22:38;4.93;;;1.27;;
18647;SDS011;9453;50.294;18.644;2023-04-03T13:25:09;6.87;;;1.60;;
18647;SDS011;9453;50.294;18.644;2023-04-03T13:27:41;3.23;;;1.47;;
18647;SDS011;9453;50.294;18.644;2023-04-03T13:30:17;5.90;;;1.73;;
18647;SDS011;9453;50.294;18.644;2023-04-03T13:32:47;5.30;;;1.40;;
18647;SDS011;9453;50.294;18.644;2023-04-03T13:35:31;2.63;;;1.47;;
18647;SDS011;9453;50.294;18.644;2023-04-03T13:38:03;2.97;;;1.63;;
18647;SDS011;9453;50.294;18.644;2023-04-03T13:40:33;3.73;;;1.30;;
18647;SDS011;9453;50.294;18.644;2023-04-03T13:43:18;8.33;;;1.57;;
18647;SDS011;9453;50.294;18.644;2023-04-03T13:48:49;3.40;;;1.60;;
18647;SDS011;9453;50.294;18.644;2023-04-03T13:51:18;3.50;;;1.20;;
18647;SDS011;9453;50.294;18.644;2023-04-03T13:53:49;4.83;;;1.63;;
18647;SDS011;9453;50.294;18.644;2023-04-03T13:56:23;3.50;;;1.50;;
18647;SDS011;9453;50.294;18.644;2023-04-03T13:59:00;5.33;;;1.40;;
18647;SDS011;9453;50.294;18.644;2023-04-03T14:01:34;4.43;;;1.60;;
18647;SDS011;9453;50.294;18.644;2023-04-03T14:04:11;2.73;;;1.37;;
18647;SDS011;9453;50.294;18.644;2023-04-03T14:06:42;6.17;;;2.00;;
18647;SDS011;9453;50.294;18.644;2023-04-03T14:09:09;3.33;;;1.40;;
18647;SDS011;9453;50.294;18.644;2023-04-03T14:11:37;7.60;;;1.67;;
18647;SDS011;9453;50.294;18.644;2023-04-03T14:14:12;3.07;;;1.40;;
18647;SDS011;9453;50.294;18.644;2023-04-03T14:16:42;4.37;;;1.87;;
18647;SDS011;9453;50.294;18.644;2023-04-03T14:19:14;2.87;;;1.60;;
18647;SDS011;9453;50.294;18.644;2023-04-03T14:21:45;3.27;;;1.30;;
18647;SDS011;9453;50.294;18.644;2023-04-03T14:24:13;6.50;;;2.10;;
18647;SDS011;9453;50.294;18.644;2023-04-03T14:26:41;5.13;;;2.17;;
18647;SDS011;9453;50.294;18.644;2023-04-03T14:29:11;4.43;;;1.63;;
18647;SDS011;9453;50.294;18.644;2023-04-03T14:31:40;4.63;;;1.50;;
18647;SDS011;9453;50.294;18.644;2023-04-03T14:34:09;6.13;;;1.53;;
18647;SDS011;9453;50.294;18.644;2023-04-03T14:36:36;3.00;;;1.30;;
18647;SDS011;9453;50.294;18.644;2023-04-03T14:39:04;2.77;;;1.40;;
18647;SDS011;9453;50.294;18.644;2023-04-03T14:41:32;5.23;;;1.47;;
18647;SDS011;9453;50.294;18.644;2023-04-03T14:43:59;4.37;;;1.57;;
18647;SDS011;9453;50.294;18.644;2023-04-03T14:46:28;3.63;;;1.27;;
18647;SDS011;9453;50.294;18.644;2023-04-03T14:48:57;3.10;;;1.13;;
18647;SDS011;9453;50.294;18.644;2023-04-03T14:51:25;3.80;;;1.40;;
18647;SDS011;9453;50.294;18.644;2023-04-03T14:53:52;4.43;;;1.43;;
18647;SDS011;9453;50.294;18.644;2023-04-03T14:56:21;2.73;;;1.20;;
18647;SDS011;9453;50.294;18.644;2023-04-03T14:58:51;4.77;;;1.87;;
18647;SDS011;9453;50.294;18.644;2023-04-03T15:01:21;3.80;;;1.70;;
18647;SDS011;9453;50.294;18.644;2023-04-03T15:03:50;6.17;;;1.63;;
18647;SDS011;9453;50.294;18.644;2023-04-03T15:06:17;5.33;;;1.60;;
18647;SDS011;9453;50.294;18.644;2023-04-03T15:08:45;5.80;;;1.77;;
18647;SDS011;9453;50.294;18.644;2023-04-03T15:11:13;2.33;;;1.27;;
18647;SDS011;9453;50.294;18.644;2023-04-03T15:13:41;3.70;;;1.57;;
18647;SDS011;9453;50.294;18.644;2023-04-03T15:16:11;2.27;;;1.23;;
18647;SDS011;9453;50.294;18.644;2023-04-03T15:18:42;5.80;;;1.60;;
18647;SDS011;9453;50.294;18.644;2023-04-03T15:21:11;5.70;;;2.20;;
18647;SDS011;9453;50.294;18.644;2023-04-03T15:23:38;5.07;;;1.70;;
18647;SDS011;9453;50.294;18.644;2023-04-03T15:26:05;3.00;;;1.43;;
18647;SDS011;9453;50.294;18.644;2023-04-03T15:28:34;4.27;;;1.50;;
18647;SDS011;9453;50.294;18.644;2023-04-03T15:31:03;3.47;;;1.60;;
18647;SDS011;9453;50.294;18.644;2023-04-03T15:33:32;5.17;;;1.70;;
18647;SDS011;9453;50.294;18.644;2023-04-03T15:36:00;4.30;;;1.60;;
18647;SDS011;9453;50.294;18.644;2023-04-03T15:38:29;2.23;;;1.10;;
18647;SDS011;9453;50.294;18.644;2023-04-03T15:40:56;6.20;;;1.63;;
18647;SDS011;9453;50.294;18.644;2023-04-03T15:43:24;3.80;;;1.63;;
18647;SDS011;9453;50.294;18.644;2023-04-03T15:45:51;7.00;;;1.57;;
18647;SDS011;9453;50.294;18.644;2023-04-03T15:48:18;4.90;;;1.40;;
18647;SDS011;9453;50.294;18.644;2023-04-03T15:50:45;5.47;;;1.40;;
18647;SDS011;9453;50.294;18.644;2023-04-03T15:53:15;3.50;;;1.67;;
18647;SDS011;9453;50.294;18.644;2023-04-03T15:55:49;3.60;;;1.20;;
18647;SDS011;9453;50.294;18.644;2023-04-03T15:58:34;7.87;;;2.30;;
18647;SDS011;9453;50.294;18.644;2023-04-03T16:01:02;2.03;;;1.27;;
18647;SDS011;9453;50.294;18.644;2023-04-03T16:03:29;4.30;;;1.73;;
18647;SDS011;9453;50.294;18.644;2023-04-03T16:05:56;7.87;;;1.80;;
18647;SDS011;9453;50.294;18.644;2023-04-03T16:08:24;3.00;;;1.57;;
18647;SDS011;9453;50.294;18.644;2023-04-03T16:10:52;6.57;;;1.80;;
18647;SDS011;9453;50.294;18.644;2023-04-03T16:13:19;2.87;;;1.50;;
18647;SDS011;9453;50.294;18.644;2023-04-03T16:15:46;5.73;;;1.87;;
18647;SDS011;9453;50.294;18.644;2023-04-03T16:18:14;4.83;;;1.43;;
18647;SDS011;9453;50.294;18.644;2023-04-03T16:20:43;2.90;;;1.33;;
18647;SDS011;9453;50.294;18.644;2023-04-03T16:23:10;3.83;;;1.90;;
18647;SDS011;9453;50.294;18.644;2023-04-03T16:25:38;4.13;;;1.73;;
18647;SDS011;9453;50.294;18.644;2023-04-03T16:28:12;5.37;;;1.50;;
18647;SDS011;9453;50.294;18.644;2023-04-03T16:30:40;4.07;;;1.90;;
18647;SDS011;9453;50.294;18.644;2023-04-03T16:33:08;4.30;;;1.33;;
18647;SDS011;9453;50.294;18.644;2023-04-03T16:35:36;2.77;;;1.40;;
18647;SDS011;9453;50.294;18.644;2023-04-03T16:38:04;4.63;;;1.30;;
18647;SDS011;9453;50.294;18.644;2023-04-03T16:40:31;7.03;;;2.20;;
18647;SDS011;9453;50.294;18.644;2023-04-03T16:43:00;5.07;;;1.53;;
18647;SDS011;9453;50.294;18.644;2023-04-03T16:45:29;5.07;;;1.83;;
18647;SDS011;9453;50.294;18.644;2023-04-03T16:47:56;4.17;;;1.60;;
18647;SDS011;9453;50.294;18.644;2023-04-03T16:50:23;3.30;;;1.63;;
18647;SDS011;9453;50.294;18.644;2023-04-03T16:52:51;3.80;;;1.40;;
18647;SDS011;9453;50.294;18.644;2023-04-03T16:55:18;3.90;;;1.43;;
18647;SDS011;9453;50.294;18.644;2023-04-03T16:57:46;3.57;;;1.60;;
18647;SDS011;9453;50.294;18.644;2023-04-03T17:00:13;17.27;;;1.90;;
18647;SDS011;9453;50.294;18.644;2023-04-03T17:02:42;4.53;;;1.47;;
18647;SDS011;9453;50.294;18.644;2023-04-03T17:05:10;3.17;;;1.40;;
18647;SDS011;9453;50.294;18.644;2023-04-03T17:07:37;5.23;;;1.80;;
18647;SDS011;9453;50.294;18.644;2023-04-03T17:10:04;3.07;;;1.57;;
18647;SDS011;9453;50.294;18.644;2023-04-03T17:12:32;4.90;;;1.67;;
18647;SDS011;9453;50.294;18.644;2023-04-03T17:15:00;6.57;;;1.87;;
18647;SDS011;9453;50.294;18.644;2023-04-03T17:17:27;4.90;;;2.10;;
18647;SDS011;9453;50.294;18.644;2023-04-03T17:19:56;4.13;;;2.07;;
18647;SDS011;9453;50.294;18.644;2023-04-03T17:22:24;6.93;;;2.00;;
18647;SDS011;9453;50.294;18.644;2023-04-03T17:24:51;5.30;;;1.90;;
18647;SDS011;9453;50.294;18.644;2023-04-03T17:27:18;4.70;;;1.60;;
18647;SDS011;9453;50.294;18.644;2023-04-03T17:29:45;4.47;;;1.77;;
18647;SDS011;9453;50.294;18.644;2023-04-03T17:32:12;4.57;;;1.40;;
18647;SDS011;9453;50.294;18.644;2023-04-03T17:34:40;3.37;;;1.70;;
18647;SDS011;9453;50.294;18.644;2023-04-03T17:37:08;5.07;;;2.07;;
18647;SDS011;9453;50.294;18.644;2023-04-03T17:39:35;4.20;;;1.70;;
18647;SDS011;9453;50.294;18.644;2023-04-03T17:42:03;7.30;;;1.77;;
18647;SDS011;9453;50.294;18.644;2023-04-03T17:44:30;4.60;;;1.47;;
18647;SDS011;9453;50.294;18.644;2023-04-03T17:46:57;5.00;;;2.00;;
18647;SDS011;9453;50.294;18.644;2023-04-03T17:49:24;3.77;;;1.70;;
18647;SDS011;9453;50.294;18.644;2023-04-03T17:51:51;9.43;;;1.80;;
18647;SDS011;9453;50.294;18.644;2023-04-03T17:54:20;4.83;;;2.33;;
18647;SDS011;9453;50.294;18.644;2023-04-03T17:56:47;7.03;;;2.10;;
18647;SDS011;9453;50.294;18.644;2023-04-03T17:59:14;4.20;;;2.17;;
18647;SDS011;9453;50.294;18.644;2023-04-03T18:01:43;4.13;;;1.97;;
18647;SDS011;9453;50.294;18.644;2023-04-03T18:04:12;3.87;;;1.73;;
18647;SDS011;9453;50.294;18.644;2023-04-03T18:06:40;4.87;;;1.83;;
18647;SDS011;9453;50.294;18.644;2023-04-03T18:09:11;4.73;;;1.90;;
18647;SDS011;9453;50.294;18.644;2023-04-03T18:11:43;4.67;;;1.73;;
18647;SDS011;9453;50.294;18.644;2023-04-03T18:14:12;5.30;;;2.30;;
18647;SDS011;9453;50.294;18.644;2023-04-03T18:16:41;3.43;;;1.60;;
18647;SDS011;9453;50.294;18.644;2023-04-03T18:19:08;4.40;;;1.80;;
18647;SDS011;9453;50.294;18.644;2023-04-03T18:21:36;4.30;;;2.37;;
18647;SDS011;9453;50.294;18.644;2023-04-03T18:24:04;5.67;;;2.07;;
18647;SDS011;9453;50.294;18.644;2023-04-03T18:26:36;5.20;;;2.17;;
18647;SDS011;9453;50.294;18.644;2023-04-03T18:29:05;6.97;;;2.30;;
18647;SDS011;9453;50.294;18.644;2023-04-03T18:31:35;14.60;;;3.47;;
18647;SDS011;9453;50.294;18.644;2023-04-03T18:34:05;4.97;;;2.13;;
18647;SDS011;9453;50.294;18.644;2023-04-03T18:36:32;6.07;;;2.07;;
18647;SDS011;9453;50.294;18.644;2023-04-03T18:38:59;5.17;;;2.27;;
18647;SDS011;9453;50.294;18.644;2023-04-03T18:41:29;4.60;;;1.87;;
18647;SDS011;9453;50.294;18.644;2023-04-03T18:44:00;5.63;;;2.30;;
18647;SDS011;9453;50.294;18.644;2023-04-03T18:46:33;5.60;;;1.93;;
18647;SDS011;9453;50.294;18.644;2023-04-03T18:49:01;6.70;;;2.53;;
18647;SDS011;9453;50.294;18.644;2023-04-03T18:51:29;5.50;;;2.07;;
18647;SDS011;9453;50.294;18.644;2023-04-03T18:53:56;4.50;;;2.33;;
18647;SDS011;9453;50.294;18.644;2023-04-03T18:56:23;4.30;;;1.90;;
18647;SDS011;9453;50.294;18.644;2023-04-03T18:58:50;6.17;;;2.20;;
18647;SDS011;9453;50.294;18.644;2023-04-03T19:01:17;4.50;;;1.67;;
18647;SDS011;9453;50.294;18.644;2023-04-03T19:03:46;8.80;;;2.90;;
18647;SDS011;9453;50.294;18.644;2023-04-03T19:06:13;5.53;;;2.30;;
18647;SDS011;9453;50.294;18.644;2023-04-03T19:08:41;9.80;;;2.93;;
18647;SDS011;9453;50.294;18.644;2023-04-03T19:11:08;6.57;;;2.70;;
18647;SDS011;9453;50.294;18.644;2023-04-03T19:13:35;6.87;;;2.83;;
18647;SDS011;9453;50.294;18.644;2023-04-03T19:16:03;7.73;;;2.57;;
18647;SDS011;9453;50.294;18.644;2023-04-03T19:18:31;7.67;;;2.73;;
18647;SDS011;9453;50.294;18.644;2023-04-03T19:20:59;6.87;;;3.10;;
18647;SDS011;9453;50.294;18.644;2023-04-03T19:23:28;6.20;;;2.60;;
18647;SDS011;9453;50.294;18.644;2023-04-03T19:25:58;7.70;;;3.10;;
18647;SDS011;9453;50.294;18.644;2023-04-03T19:28:26;8.40;;;2.87;;
18647;SDS011;9453;50.294;18.644;2023-04-03T19:30:54;7.40;;;3.20;;
18647;SDS011;9453;50.294;18.644;2023-04-03T19:33:22;11.67;;;3.47;;
18647;SDS011;9453;50.294;18.644;2023-04-03T19:35:50;3.83;;;2.40;;
18647;SDS011;9453;50.294;18.644;2023-04-03T19:38:18;9.93;;;2.50;;
18647;SDS011;9453;50.294;18.644;2023-04-03T19:40:46;10.00;;;3.17;;
18647;SDS011;9453;50.294;18.644;2023-04-03T19:43:14;11.83;;;2.80;;
18647;SDS011;9453;50.294;18.644;2023-04-03T19:45:42;10.77;;;3.33;;
18647;SDS011;9453;50.294;18.644;2023-04-03T19:48:11;6.27;;;2.63;;
18647;SDS011;9453;50.294;18.644;2023-04-03T19:50:46;10.63;;;2.87;;
18647;SDS011;9453;50.294;18.644;2023-04-03T19:53:13;11.53;;;4.03;;
18647;SDS011;9453;50.294;18.644;2023-04-03T19:55:45;17.90;;;5.27;;
18647;SDS011;9453;50.294;18.644;2023-04-03T19:58:12;18.17;;;6.03;;
18647;SDS011;9453;50.294;18.644;2023-04-03T20:00:40;11.67;;;4.27;;
18647;SDS011;9453;50.294;18.644;2023-04-03T20:03:07;8.77;;;2.80;;